Time;durP1;ratioP1;P1;durP2;ratioP2;P2;SDS_P1;SDS_P2;PMS_P1;PMS_P2;Temp;Humidity;BMP_temperature;BMP_pressure;BME280_temperature;BME280_humidity;BME280_pressure;Samples;Min_cycle;Max_cycle;Signal;HPM_P1;HPM_P2
2021/12/01 00:01:33;;;;;;;;;;;3.50;99.90;;;;;;5003989;28;20176;-73
2021/12/01 00:03:59;;;;;;;;;;;3.40;99.90;;;;;;5003584;28;19928;-73
2021/12/01 00:06:26;;;;;;;;;;;3.40;99.90;;;;;;5004134;28;19957;-73
2021/12/01 00:08:52;;;;;;;;;;;3.50;99.90;;;;;;5004043;28;19922;-73
2021/12/01 00:11:19;;;;;;;;;;;3.40;99.90;;;;;;5004017;28;19957;-73
2021/12/01 00:13:47;;;;;;;;;;;3.40;99.90;;;;;;5003539;28;19945;-73
2021/12/01 00:16:14;;;;;;;;;;;3.40;99.90;;;;;;5022851;28;19960;-73
2021/12/01 00:18:41;;;;;;;;;;;3.40;99.90;;;;;;5023127;28;19963;-73
2021/12/01 00:21:07;;;;;;;;;;;3.40;99.90;;;;;;5023511;28;19928;-73
2021/12/01 00:23:34;;;;;;;;;;;3.40;99.90;;;;;;5022799;28;19953;-73
2021/12/01 00:26:01;;;;;;;;;;;3.40;99.90;;;;;;5023509;28;19956;-73
2021/12/01 00:28:28;;;;;;;;;;;3.40;99.90;;;;;;5023408;28;19922;-72
2021/12/01 00:30:57;;;;;;;;;;;3.40;99.90;;;;;;5023392;28;19953;-73
2021/12/01 00:33:24;;;;;;;;;;;3.40;99.90;;;;;;5023380;28;19957;-73
2021/12/01 00:35:52;;;;;;;;;;;3.40;99.90;;;;;;5022385;28;19922;-73
2021/12/01 00:38:18;;;;;;;;;;;3.30;99.90;;;;;;5023318;28;19956;-73
2021/12/01 00:40:45;;;;;;;;;;;3.30;99.90;;;;;;5023616;28;20161;-73
2021/12/01 00:43:17;;;;;;;;;;;3.30;99.90;;;;;;5023221;28;19957;-73
2021/12/01 00:45:49;;;;;;;;;;;3.30;99.90;;;;;;5022715;28;19956;-73
2021/12/01 00:48:18;;;;;;;;;;;3.30;99.90;;;;;;5023558;28;19981;-74
2021/12/01 00:50:45;;;;;;;;;;;3.30;99.90;;;;;;5023359;28;19921;-73
2021/12/01 00:53:12;;;;;;;;;;;3.30;99.90;;;;;;5023573;28;20028;-73
2021/12/01 00:55:41;;;;;;;;;;;3.30;99.90;;;;;;5021157;28;19921;-73
2021/12/01 00:58:08;;;;;;;;;;;3.30;99.90;;;;;;5023278;28;19922;-73
2021/12/01 01:00:35;;;;;;;;;;;3.30;99.90;;;;;;5022577;28;20295;-73
2021/12/01 01:03:01;;;;;;;;;;;3.30;99.90;;;;;;5023289;28;19922;-73
2021/12/01 01:05:29;;;;;;;;;;;3.30;99.90;;;;;;5025946;28;19960;-73
2021/12/01 01:07:56;;;;;;;;;;;3.30;99.90;;;;;;5021858;28;19998;-73
2021/12/01 01:10:35;;;;;;;;;;;3.30;99.90;;;;;;5033571;28;19928;-72
2021/12/01 01:18:34;;;;;;;;;;;3.40;99.90;;;;;;5012559;28;19924;-72
2021/12/01 01:21:02;;;;;;;;;;;3.40;99.90;;;;;;5006511;28;19922;-72
2021/12/01 01:23:29;;;;;;;;;;;3.40;99.90;;;;;;5006242;28;19922;-72
2021/12/01 01:25:56;;;;;;;;;;;3.40;99.90;;;;;;5011120;28;19921;-72
2021/12/01 01:28:23;;;;;;;;;;;3.40;99.90;;;;;;5025694;28;19952;-72
2021/12/01 01:30:49;;;;;;;;;;;3.40;99.90;;;;;;5025869;28;19921;-72
2021/12/01 01:33:16;;;;;;;;;;;3.50;99.90;;;;;;5026213;28;20173;-73
2021/12/01 01:35:43;;;;;;;;;;;3.50;99.90;;;;;;5025331;28;19922;-72
2021/12/01 01:38:11;;;;;;;;;;;3.50;99.90;;;;;;5025826;28;19959;-72
2021/12/01 01:40:38;;;;;;;;;;;3.50;99.90;;;;;;5022696;28;19957;-72
2021/12/01 01:43:05;;;;;;;;;;;3.50;99.90;;;;;;5025957;28;19928;-72
2021/12/01 01:45:31;;;;;;;;;;;3.50;99.90;;;;;;5025143;28;19952;-72
2021/12/01 01:48:00;;;;;;;;;;;3.60;99.90;;;;;;5025402;28;20335;-73
2021/12/01 01:50:35;;;;;;;;;;;3.60;99.90;;;;;;5025804;28;19964;-72
2021/12/01 01:53:02;;;;;;;;;;;3.60;99.90;;;;;;5025916;28;19933;-72
2021/12/01 01:55:30;;;;;;;;;;;3.50;99.90;;;;;;5024749;28;20131;-72
2021/12/01 01:57:57;;;;;;;;;;;3.50;99.90;;;;;;5025680;28;19921;-73
2021/12/01 02:00:23;;;;;;;;;;;3.50;99.90;;;;;;5025727;28;20109;-72
2021/12/01 02:02:50;;;;;;;;;;;3.50;99.90;;;;;;5025596;28;19928;-72
2021/12/01 02:05:17;;;;;;;;;;;3.60;99.90;;;;;;5013297;28;19969;-72
2021/12/01 02:07:45;;;;;;;;;;;3.60;99.90;;;;;;5009782;28;19925;-72
2021/12/01 02:10:11;;;;;;;;;;;3.60;99.90;;;;;;5025157;28;19926;-72
2021/12/01 02:12:40;;;;;;;;;;;3.60;99.90;;;;;;5025502;28;20109;-72
2021/12/01 02:15:07;;;;;;;;;;;3.60;99.90;;;;;;5024533;28;19980;-70
2021/12/01 02:17:33;;;;;;;;;;;3.60;99.90;;;;;;5024934;28;19976;-72
2021/12/01 02:20:02;;;;;;;;;;;3.70;99.90;;;;;;5025251;28;19921;-72
2021/12/01 02:22:33;;;;;;;;;;;3.60;99.90;;;;;;5025231;28;19976;-72
2021/12/01 02:25:00;;;;;;;;;;;3.60;99.90;;;;;;5023865;28;19921;-72
2021/12/01 02:27:27;;;;;;;;;;;3.70;99.90;;;;;;5024724;28;19961;-72
2021/12/01 02:29:53;;;;;;;;;;;3.70;99.90;;;;;;5025032;28;19922;-71
2021/12/01 02:32:20;;;;;;;;;;;3.70;99.90;;;;;;5024759;28;19922;-72
2021/12/01 02:34:47;;;;;;;;;;;3.70;99.90;;;;;;5024267;28;19921;-73
2021/12/01 02:37:13;;;;;;;;;;;3.70;99.90;;;;;;5024479;28;19929;-72
2021/12/01 02:39:42;;;;;;;;;;;3.70;99.90;;;;;;5023239;28;20028;-72
2021/12/01 02:42:08;;;;;;;;;;;3.70;99.90;;;;;;5023762;28;20211;-72
2021/12/01 02:44:35;;;;;;;;;;;3.60;99.90;;;;;;5024152;28;19929;-72
2021/12/01 02:47:03;;;;;;;;;;;3.60;99.90;;;;;;5024365;28;19921;-72
2021/12/01 02:49:30;;;;;;;;;;;3.70;99.90;;;;;;5024673;28;20121;-72
2021/12/01 02:51:57;;;;;;;;;;;3.70;99.90;;;;;;5024405;28;19928;-72
2021/12/01 02:54:24;;;;;;;;;;;3.70;99.90;;;;;;5024166;28;19921;-73
2021/12/01 02:56:53;;;;;;;;;;;3.70;99.90;;;;;;5024493;28;19957;-72
2021/12/01 02:59:19;;;;;;;;;;;3.70;99.90;;;;;;5024641;28;20169;-73
2021/12/01 03:01:46;;;;;;;;;;;3.70;99.90;;;;;;5024303;28;19960;-72
2021/12/01 03:04:13;;;;;;;;;;;3.70;99.90;;;;;;5023255;28;20232;-72
2021/12/01 03:06:40;;;;;;;;;;;3.70;99.90;;;;;;5024037;28;19922;-72
2021/12/01 03:09:08;;;;;;;;;;;3.70;99.90;;;;;;5023723;28;19956;-72
2021/12/01 03:11:36;;;;;;;;;;;3.70;99.90;;;;;;5024187;28;19921;-73
2021/12/01 03:14:08;;;;;;;;;;;3.70;99.90;;;;;;5023505;28;19922;-72
2021/12/01 03:16:35;;;;;;;;;;;3.70;99.90;;;;;;5023739;28;19941;-72
2021/12/01 03:19:02;;;;;;;;;;;3.70;99.90;;;;;;5023354;28;19922;-73
2021/12/01 03:21:28;;;;;;;;;;;3.60;99.90;;;;;;5024229;28;19921;-71
2021/12/01 03:23:55;;;;;;;;;;;3.60;99.90;;;;;;5023367;28;19928;-72
2021/12/01 03:26:22;;;;;;;;;;;3.60;99.90;;;;;;5023229;28;19953;-73
2021/12/01 03:28:49;;;;;;;;;;;3.60;99.90;;;;;;5006268;28;19956;-71
2021/12/01 03:31:17;;;;;;;;;;;3.60;99.90;;;;;;5004373;28;19921;-72
2021/12/01 03:33:44;;;;;;;;;;;3.60;99.90;;;;;;5003721;28;19929;-72
2021/12/01 03:36:10;;;;;;;;;;;3.60;99.90;;;;;;5004120;28;19922;-72
2021/12/01 03:38:37;;;;;;;;;;;3.60;99.90;;;;;;5003450;28;20276;-72
2021/12/01 03:41:04;;;;;;;;;;;3.60;99.90;;;;;;5001505;28;19953;-72
2021/12/01 03:43:30;;;;;;;;;;;3.60;99.90;;;;;;5003881;28;20221;-72
2021/12/01 03:45:57;;;;;;;;;;;3.60;99.90;;;;;;5004132;28;19945;-72
2021/12/01 03:48:25;;;;;;;;;;;3.60;99.90;;;;;;5004362;28;19922;-73
2021/12/01 03:50:54;;;;;;;;;;;3.60;99.90;;;;;;5004304;28;19928;-72
2021/12/01 03:53:22;;;;;;;;;;;3.60;99.90;;;;;;5015878;28;19922;-72
2021/12/01 03:55:49;;;;;;;;;;;3.60;99.90;;;;;;5023156;28;19932;-72
2021/12/01 03:58:16;;;;;;;;;;;3.60;99.90;;;;;;5023390;28;20184;-73
2021/12/01 04:00:43;;;;;;;;;;;3.60;99.90;;;;;;5023480;28;19928;-72
2021/12/01 04:03:10;;;;;;;;;;;3.60;99.90;;;;;;5023426;28;19944;-72
2021/12/01 04:05:38;;;;;;;;;;;3.70;99.90;;;;;;5022532;28;20232;-72
2021/12/01 04:08:06;;;;;;;;;;;3.60;99.90;;;;;;5023186;28;19952;-72
2021/12/01 04:10:32;;;;;;;;;;;3.70;99.90;;;;;;5023721;28;19944;-72
2021/12/01 04:12:59;;;;;;;;;;;3.60;99.90;;;;;;5023419;28;20224;-72
2021/12/01 04:15:26;;;;;;;;;;;3.70;99.90;;;;;;5022810;28;20286;-72
2021/12/01 04:17:52;;;;;;;;;;;3.60;99.90;;;;;;5022619;28;19929;-73
2021/12/01 04:20:19;;;;;;;;;;;3.70;99.90;;;;;;5023462;28;19988;-72
2021/12/01 04:22:48;;;;;;;;;;;3.70;99.90;;;;;;5022923;28;19929;-72
2021/12/01 04:25:15;;;;;;;;;;;3.70;99.90;;;;;;5022016;28;19928;-72
2021/12/01 04:27:42;;;;;;;;;;;3.70;99.90;;;;;;5022885;28;19922;-73
2021/12/01 04:30:09;;;;;;;;;;;3.70;99.90;;;;;;5023163;28;19960;-71
2021/12/01 04:32:36;;;;;;;;;;;3.70;99.90;;;;;;5022861;28;20120;-70
2021/12/01 04:35:04;;;;;;;;;;;3.70;99.90;;;;;;5021582;28;19928;-72
2021/12/01 04:37:30;;;;;;;;;;;3.80;99.90;;;;;;5023240;28;19922;-71
2021/12/01 04:39:59;;;;;;;;;;;3.80;99.90;;;;;;5026276;28;19929;-73
2021/12/01 04:42:25;;;;;;;;;;;3.80;99.90;;;;;;5026943;28;19921;-73
2021/12/01 04:44:52;;;;;;;;;;;3.80;99.90;;;;;;5026504;28;19921;-73
2021/12/01 04:47:26;;;;;;;;;;;3.90;99.90;;;;;;5026639;28;19929;-73
2021/12/01 04:49:53;;;;;;;;;;;3.90;99.90;;;;;;5026987;28;19944;-73
2021/12/01 04:52:19;;;;;;;;;;;3.90;99.90;;;;;;5026600;28;20276;-72
2021/12/01 04:54:46;;;;;;;;;;;4.00;99.90;;;;;;5025927;28;19921;-72
2021/12/01 04:57:16;;;;;;;;;;;4.00;99.90;;;;;;5026585;28;19929;-72
2021/12/01 04:59:42;;;;;;;;;;;4.00;99.90;;;;;;5026742;28;19981;-72
2021/12/01 05:02:09;;;;;;;;;;;4.00;99.90;;;;;;5026703;28;19922;-71
2021/12/01 05:04:36;;;;;;;;;;;4.10;99.90;;;;;;5026131;28;19922;-72
2021/12/01 05:07:02;;;;;;;;;;;4.10;99.90;;;;;;5026211;28;20209;-73
2021/12/01 05:09:29;;;;;;;;;;;4.10;99.90;;;;;;5026569;28;19968;-73
2021/12/01 05:11:56;;;;;;;;;;;4.10;99.90;;;;;;5026296;28;19964;-73
2021/12/01 05:14:27;;;;;;;;;;;4.10;99.90;;;;;;5023368;28;19922;-72
2021/12/01 05:16:54;;;;;;;;;;;4.10;99.90;;;;;;5026217;28;19921;-72
2021/12/01 05:19:21;;;;;;;;;;;4.10;99.90;;;;;;5025828;28;19929;-72
2021/12/01 05:21:48;;;;;;;;;;;4.10;99.90;;;;;;5026034;28;19964;-72
2021/12/01 05:24:14;;;;;;;;;;;4.20;99.90;;;;;;5023778;28;19972;-73
2021/12/01 05:26:41;;;;;;;;;;;4.10;99.90;;;;;;5026375;28;19980;-73
2021/12/01 05:29:08;;;;;;;;;;;4.20;99.90;;;;;;5025296;28;19988;-73
2021/12/01 05:31:36;;;;;;;;;;;4.10;99.90;;;;;;5026720;28;20108;-71
2021/12/01 05:34:03;;;;;;;;;;;4.10;99.90;;;;;;5025838;28;19960;-72
2021/12/01 05:36:29;;;;;;;;;;;4.10;99.90;;;;;;5026361;28;19921;-71
2021/12/01 05:38:57;;;;;;;;;;;4.20;99.90;;;;;;5025850;28;19921;-71
2021/12/01 05:41:23;;;;;;;;;;;4.20;99.90;;;;;;5026315;28;19927;-71
2021/12/01 05:43:50;;;;;;;;;;;4.20;99.90;;;;;;5025723;28;19929;-71
2021/12/01 05:46:29;;;;;;;;;;;4.30;99.90;;;;;;5023744;28;19921;-72
2021/12/01 05:48:57;;;;;;;;;;;4.30;99.90;;;;;;5025342;28;20116;-72
2021/12/01 05:51:24;;;;;;;;;;;4.30;99.90;;;;;;5025711;28;19961;-71
2021/12/01 05:53:51;;;;;;;;;;;4.30;99.90;;;;;;5025645;28;20120;-73
2021/12/01 05:56:18;;;;;;;;;;;4.40;99.90;;;;;;5023422;28;19929;-71
2021/12/01 05:58:45;;;;;;;;;;;4.40;99.90;;;;;;5026257;28;19929;-72
2021/12/01 06:01:12;;;;;;;;;;;4.40;99.90;;;;;;5025654;28;19957;-71
2021/12/01 06:03:39;;;;;;;;;;;4.40;99.90;;;;;;5025602;28;19957;-72
2021/12/01 06:06:07;;;;;;;;;;;4.40;99.90;;;;;;5025724;28;19921;-71
2021/12/01 06:08:34;;;;;;;;;;;4.40;99.90;;;;;;5025719;28;19921;-72
2021/12/01 06:11:00;;;;;;;;;;;4.40;99.90;;;;;;5025448;28;19921;-72
2021/12/01 06:13:27;;;;;;;;;;;4.40;99.90;;;;;;5025826;28;20200;-71
2021/12/01 06:15:54;;;;;;;;;;;4.40;99.90;;;;;;5024325;28;19960;-70
2021/12/01 06:18:21;;;;;;;;;;;4.40;99.90;;;;;;5024775;28;19921;-71
2021/12/01 06:20:47;;;;;;;;;;;4.40;99.90;;;;;;5025442;28;19921;-71
2021/12/01 06:23:16;;;;;;;;;;;4.40;99.90;;;;;;5025258;28;20213;-72
2021/12/01 06:25:42;;;;;;;;;;;4.40;99.90;;;;;;5024238;28;19957;-71
2021/12/01 06:28:09;;;;;;;;;;;4.40;99.90;;;;;;5023104;28;19953;-74
2021/12/01 06:30:37;;;;;;;;;;;4.40;99.90;;;;;;5024490;28;19922;-71
2021/12/01 06:33:04;;;;;;;;;;;4.40;99.90;;;;;;5024896;28;19929;-70
2021/12/01 06:35:30;;;;;;;;;;;4.30;99.90;;;;;;5024121;28;19929;-72
2021/12/01 06:37:57;;;;;;;;;;;4.30;99.90;;;;;;5021516;28;19922;-72
2021/12/01 06:40:26;;;;;;;;;;;4.40;99.90;;;;;;5019489;28;19953;-72
2021/12/01 06:42:53;;;;;;;;;;;4.40;99.90;;;;;;5024190;28;19921;-72
2021/12/01 06:45:19;;;;;;;;;;;4.40;99.90;;;;;;5022781;28;19921;-72
2021/12/01 06:47:47;;;;;;;;;;;4.40;99.90;;;;;;5017807;28;19936;-72
2021/12/01 06:50:14;;;;;;;;;;;4.40;99.90;;;;;;5024075;28;20194;-70
2021/12/01 06:52:40;;;;;;;;;;;4.50;99.90;;;;;;5021713;28;19963;-70
2021/12/01 06:55:08;;;;;;;;;;;4.50;99.90;;;;;;5022873;28;19963;-72
2021/12/01 06:57:36;;;;;;;;;;;4.50;99.90;;;;;;5023433;28;20257;-72
2021/12/01 07:00:04;;;;;;;;;;;4.50;99.90;;;;;;5023575;28;19921;-72
2021/12/01 07:02:32;;;;;;;;;;;4.50;99.90;;;;;;5020154;28;19928;-72
2021/12/01 07:04:59;;;;;;;;;;;4.60;99.90;;;;;;5022829;28;19959;-71
2021/12/01 07:07:25;;;;;;;;;;;4.60;99.90;;;;;;5023639;28;19929;-72
2021/12/01 07:09:53;;;;;;;;;;;4.60;99.90;;;;;;5023531;28;20159;-72
2021/12/01 07:12:19;;;;;;;;;;;4.60;99.90;;;;;;5022759;28;20176;-72
2021/12/01 07:14:47;;;;;;;;;;;4.70;99.90;;;;;;5023073;28;19964;-72
2021/12/01 07:17:14;;;;;;;;;;;4.70;99.90;;;;;;5023707;28;19921;-72
2021/12/01 07:19:41;;;;;;;;;;;4.70;99.90;;;;;;5024119;28;19980;-69
2021/12/01 07:22:08;;;;;;;;;;;4.70;99.90;;;;;;5023911;28;19956;-71
2021/12/01 07:24:34;;;;;;;;;;;4.70;99.90;;;;;;5023322;28;19972;-71
2021/12/01 07:27:01;;;;;;;;;;;4.70;99.90;;;;;;5024218;28;19993;-71
2021/12/01 07:29:28;;;;;;;;;;;4.80;99.90;;;;;;5022679;28;20232;-71
2021/12/01 07:31:56;;;;;;;;;;;4.80;99.90;;;;;;5023962;28;20165;-71
2021/12/01 07:34:22;;;;;;;;;;;4.80;99.90;;;;;;5023344;28;19963;-72
2021/12/01 07:36:49;;;;;;;;;;;4.80;99.90;;;;;;5023897;28;19944;-72
2021/12/01 07:39:16;;;;;;;;;;;4.80;99.90;;;;;;5023222;28;19928;-71
2021/12/01 07:41:43;;;;;;;;;;;4.90;99.90;;;;;;5023896;28;19985;-72
2021/12/01 07:44:09;;;;;;;;;;;4.90;99.90;;;;;;5022739;28;19960;-72
2021/12/01 07:46:36;;;;;;;;;;;4.90;99.90;;;;;;5023517;28;19922;-72
2021/12/01 07:49:04;;;;;;;;;;;4.90;99.90;;;;;;5023784;28;19960;-71
2021/12/01 07:51:31;;;;;;;;;;;4.90;99.90;;;;;;5023756;28;19922;-73
2021/12/01 07:53:57;;;;;;;;;;;4.90;99.90;;;;;;5023152;28;19956;-70
2021/12/01 07:56:26;;;;;;;;;;;5.00;99.90;;;;;;5020990;28;19928;-70
2021/12/01 07:58:53;;;;;;;;;;;5.00;99.90;;;;;;5023502;28;19921;-72
2021/12/01 08:01:20;;;;;;;;;;;5.00;99.90;;;;;;5023155;28;19922;-71
2021/12/01 08:03:46;;;;;;;;;;;5.00;99.90;;;;;;5022986;28;19956;-71
2021/12/01 08:06:14;;;;;;;;;;;5.10;99.90;;;;;;5022425;28;19929;-71
2021/12/01 08:08:41;;;;;;;;;;;5.20;99.90;;;;;;5022685;28;19922;-71
2021/12/01 08:11:08;;;;;;;;;;;5.20;99.90;;;;;;5023678;28;19964;-71
2021/12/01 08:13:34;;;;;;;;;;;5.20;99.90;;;;;;5025576;28;19921;-71
2021/12/01 08:16:01;;;;;;;;;;;5.30;99.90;;;;;;5026745;28;19986;-71
2021/12/01 08:18:28;;;;;;;;;;;5.40;99.90;;;;;;5026819;28;19952;-71
2021/12/01 08:20:54;;;;;;;;;;;5.50;99.90;;;;;;5027609;28;19928;-71
2021/12/01 08:23:22;;;;;;;;;;;5.50;99.90;;;;;;5027315;28;19922;-71
2021/12/01 08:25:49;;;;;;;;;;;5.60;99.90;;;;;;5025950;28;20205;-71
2021/12/01 08:28:16;;;;;;;;;;;5.60;99.90;;;;;;5026349;28;19956;-71
2021/12/01 08:30:43;;;;;;;;;;;5.70;99.90;;;;;;5027394;28;19953;-71
2021/12/01 08:33:09;;;;;;;;;;;5.70;99.90;;;;;;5027378;28;19921;-72
2021/12/01 08:35:36;;;;;;;;;;;5.80;99.90;;;;;;5026142;28;19922;-71
2021/12/01 08:38:03;;;;;;;;;;;5.80;99.90;;;;;;5026119;28;19921;-71
2021/12/01 08:40:31;;;;;;;;;;;5.90;99.90;;;;;;5026291;28;19925;-71
2021/12/01 08:42:57;;;;;;;;;;;5.90;99.90;;;;;;5026409;28;20182;-71
2021/12/01 08:45:24;;;;;;;;;;;5.90;99.90;;;;;;5025251;28;19933;-71
2021/12/01 08:47:51;;;;;;;;;;;6.00;99.90;;;;;;5025672;28;20251;-71
2021/12/01 08:50:17;;;;;;;;;;;6.00;99.90;;;;;;5026653;28;19921;-71
2021/12/01 08:52:45;;;;;;;;;;;6.00;99.90;;;;;;5026235;28;19964;-71
2021/12/01 08:55:12;;;;;;;;;;;6.10;99.90;;;;;;5025414;28;19960;-74
2021/12/01 08:57:42;;;;;;;;;;;6.10;99.90;;;;;;5023442;28;19922;-74
2021/12/01 09:00:10;;;;;;;;;;;6.10;99.90;;;;;;5026113;28;19921;-71
2021/12/01 09:02:36;;;;;;;;;;;6.20;99.90;;;;;;5026649;28;19957;-71
2021/12/01 09:05:03;;;;;;;;;;;6.20;99.90;;;;;;5025313;28;19922;-71
2021/12/01 09:07:30;;;;;;;;;;;6.30;99.90;;;;;;5025889;28;20205;-71
2021/12/01 09:09:56;;;;;;;;;;;6.30;99.90;;;;;;5026612;28;19956;-71
2021/12/01 09:12:23;;;;;;;;;;;6.40;99.90;;;;;;5026190;28;19921;-71
2021/12/01 09:14:54;;;;;;;;;;;6.50;99.90;;;;;;5025587;28;20278;-71
2021/12/01 09:17:21;;;;;;;;;;;6.50;99.90;;;;;;5020061;28;19921;-72
2021/12/01 09:19:48;;;;;;;;;;;6.50;99.90;;;;;;5026343;28;19956;-72
2021/12/01 09:22:16;;;;;;;;;;;6.60;99.90;;;;;;5026524;28;20098;-72
2021/12/01 09:24:43;;;;;;;;;;;6.50;99.90;;;;;;5024717;28;19925;-72
2021/12/01 09:27:10;;;;;;;;;;;6.50;99.90;;;;;;5025355;28;19921;-72
2021/12/01 09:29:37;;;;;;;;;;;6.60;99.90;;;;;;5025977;28;19960;-72
2021/12/01 09:32:05;;;;;;;;;;;6.60;99.90;;;;;;5025873;28;19984;-71
2021/12/01 09:34:32;;;;;;;;;;;6.60;99.90;;;;;;5025387;28;19929;-72
2021/12/01 09:36:59;;;;;;;;;;;6.60;99.90;;;;;;5025506;28;19921;-72
2021/12/01 09:39:26;;;;;;;;;;;6.60;99.90;;;;;;5025347;28;19929;-71
2021/12/01 09:41:54;;;;;;;;;;;6.60;99.90;;;;;;5025980;28;19952;-71
2021/12/01 09:44:21;;;;;;;;;;;6.70;99.90;;;;;;5024222;28;19927;-72
2021/12/01 09:46:48;;;;;;;;;;;6.70;99.90;;;;;;5025494;28;19921;-72
2021/12/01 09:49:16;;;;;;;;;;;6.70;99.90;;;;;;5024515;28;20263;-72
2021/12/01 09:51:43;;;;;;;;;;;6.70;99.90;;;;;;5025378;28;19928;-72
2021/12/01 09:54:09;;;;;;;;;;;6.70;99.90;;;;;;5024886;28;19933;-72
2021/12/01 09:56:36;;;;;;;;;;;6.80;99.90;;;;;;5025160;28;19953;-72
2021/12/01 09:59:03;;;;;;;;;;;6.90;99.90;;;;;;5024407;28;19925;-72
2021/12/01 10:01:30;;;;;;;;;;;6.90;99.90;;;;;;5025562;28;19929;-71
2021/12/01 10:03:57;;;;;;;;;;;6.90;99.90;;;;;;5024920;28;20173;-72
2021/12/01 10:06:26;;;;;;;;;;;7.00;99.90;;;;;;5024975;28;19928;-72
2021/12/01 10:08:54;;;;;;;;;;;7.00;99.90;;;;;;5024987;28;19952;-72
2021/12/01 10:11:22;;;;;;;;;;;7.10;99.90;;;;;;5024821;28;20197;-72
2021/12/01 10:13:50;;;;;;;;;;;7.20;99.90;;;;;;5024905;28;19930;-72
2021/12/01 10:16:18;;;;;;;;;;;7.20;99.90;;;;;;5024341;28;19953;-72
2021/12/01 10:18:46;;;;;;;;;;;7.20;99.90;;;;;;5005099;28;19968;-72
2021/12/01 10:21:14;;;;;;;;;;;7.20;99.90;;;;;;5005177;28;19921;-72
2021/12/01 10:23:47;;;;;;;;;;;7.30;99.90;;;;;;5020962;28;20236;-72
2021/12/01 10:26:19;;;;;;;;;;;7.30;99.90;;;;;;5024587;28;19929;-72
2021/12/01 10:28:47;;;;;;;;;;;7.40;99.90;;;;;;5024426;28;19928;-72
2021/12/01 10:31:14;;;;;;;;;;;7.40;99.90;;;;;;5025127;28;19922;-73
2021/12/01 10:33:41;;;;;;;;;;;7.50;99.90;;;;;;5024643;28;19928;-73
2021/12/01 10:36:09;;;;;;;;;;;7.60;99.90;;;;;;5025056;28;19929;-73
2021/12/01 10:38:37;;;;;;;;;;;7.60;99.90;;;;;;5024464;28;19921;-73
2021/12/01 10:41:10;;;;;;;;;;;7.60;99.90;;;;;;5024058;28;19930;-73
2021/12/01 10:43:38;;;;;;;;;;;7.70;99.90;;;;;;5023814;28;19984;-74
2021/12/01 10:46:09;;;;;;;;;;;7.70;99.90;;;;;;5023716;28;19930;-73
2021/12/01 10:48:36;;;;;;;;;;;7.80;99.90;;;;;;5024273;28;19929;-73
2021/12/01 10:51:03;;;;;;;;;;;7.80;99.90;;;;;;5024270;28;20124;-73
2021/12/01 10:53:30;;;;;;;;;;;7.80;99.90;;;;;;5023902;28;19957;-74
2021/12/01 10:55:58;;;;;;;;;;;7.90;99.90;;;;;;5017272;28;19988;-73
2021/12/01 10:58:32;;;;;;;;;;;7.90;99.90;;;;;;5015732;28;19921;-74
2021/12/01 11:01:00;;;;;;;;;;;7.90;99.90;;;;;;5022927;28;19921;-72
2021/12/01 11:03:30;;;;;;;;;;;7.90;99.90;;;;;;5039488;28;20236;-72
2021/12/01 11:05:57;;;;;;;;;;;8.00;99.90;;;;;;5023840;28;19980;-73
2021/12/01 11:08:25;;;;;;;;;;;8.00;99.90;;;;;;5024615;28;19921;-71
2021/12/01 11:10:53;;;;;;;;;;;8.00;99.90;;;;;;5024159;28;19984;-73
2021/12/01 11:13:20;;;;;;;;;;;8.00;99.90;;;;;;5024570;28;19921;-72
2021/12/01 11:15:51;;;;;;;;;;;8.10;99.90;;;;;;5023137;28;19957;-72
2021/12/01 11:18:19;;;;;;;;;;;8.00;99.90;;;;;;5024107;28;19922;-73
2021/12/01 11:20:46;;;;;;;;;;;8.00;99.90;;;;;;5023826;28;19928;-72
2021/12/01 11:23:22;;;;;;;;;;;8.00;99.90;;;;;;5024609;28;19929;-72
2021/12/01 11:25:49;;;;;;;;;;;8.00;99.90;;;;;;5023765;28;19952;-72
2021/12/01 11:28:17;;;;;;;;;;;8.00;99.90;;;;;;5024131;28;19921;-72
2021/12/01 11:30:44;;;;;;;;;;;8.10;99.90;;;;;;5024572;28;19929;-73
2021/12/01 11:33:16;;;;;;;;;;;8.10;99.90;;;;;;5014346;28;19992;-71
2021/12/01 11:35:43;;;;;;;;;;;8.10;99.90;;;;;;5023315;28;19921;-72
2021/12/01 11:38:10;;;;;;;;;;;8.10;99.90;;;;;;5023990;28;19928;-72
2021/12/01 11:40:37;;;;;;;;;;;8.10;99.90;;;;;;5024070;28;20105;-72
2021/12/01 11:43:04;;;;;;;;;;;8.10;99.90;;;;;;5023842;28;19956;-73
2021/12/01 11:45:31;;;;;;;;;;;8.10;99.90;;;;;;5022996;28;19921;-71
2021/12/01 11:47:58;;;;;;;;;;;8.10;99.90;;;;;;5023160;28;19921;-72
2021/12/01 11:50:30;;;;;;;;;;;8.10;99.90;;;;;;5023922;28;20117;-72
2021/12/01 11:53:13;;;;;;;;;;;8.10;99.90;;;;;;5023720;28;19926;-72
2021/12/01 11:55:50;;;;;;;;;;;8.10;99.90;;;;;;5020144;28;20232;-72
2021/12/01 11:58:35;;;;;;;;;;;8.10;99.90;;;;;;5023616;28;19928;-72
2021/12/01 12:01:02;;;;;;;;;;;8.20;99.90;;;;;;5022518;28;20076;-72
2021/12/01 12:03:29;;;;;;;;;;;8.20;99.90;;;;;;5017093;28;19952;-72
2021/12/01 12:06:20;;;;;;;;;;;8.30;99.90;;;;;;5022980;28;19985;-72
2021/12/01 12:08:57;;;;;;;;;;;8.30;99.90;;;;;;5018145;28;19945;-72
2021/12/01 12:11:33;;;;;;;;;;;8.30;99.90;;;;;;5003963;28;19921;-73
2021/12/01 12:14:01;;;;;;;;;;;8.30;99.90;;;;;;5021206;28;19930;-73
2021/12/01 12:16:27;;;;;;;;;;;8.30;99.90;;;;;;5020320;28;19943;-72
2021/12/01 12:18:55;;;;;;;;;;;8.30;99.90;;;;;;5021733;28;19956;-72
2021/12/01 12:21:32;;;;;;;;;;;8.40;99.90;;;;;;5022611;28;20080;-72
2021/12/01 12:24:03;;;;;;;;;;;8.50;99.90;;;;;;5015708;28;19926;-72
2021/12/01 12:26:34;;;;;;;;;;;8.50;99.90;;;;;;5021934;28;20228;-71
2021/12/01 12:29:03;;;;;;;;;;;8.60;99.90;;;;;;5023098;28;19959;-72
2021/12/01 12:31:31;;;;;;;;;;;8.60;99.90;;;;;;5020508;28;19928;-72
2021/12/01 12:33:59;;;;;;;;;;;8.50;99.90;;;;;;5022421;28;19928;-72
2021/12/01 12:36:37;;;;;;;;;;;8.60;99.90;;;;;;5022706;28;19921;-72
2021/12/01 12:39:05;;;;;;;;;;;8.60;99.90;;;;;;5021055;28;19921;-72
2021/12/01 12:41:31;;;;;;;;;;;8.60;99.90;;;;;;5022203;28;20294;-72
2021/12/01 12:44:19;;;;;;;;;;;8.50;99.90;;;;;;5021653;28;20197;-72
2021/12/01 12:47:00;;;;;;;;;;;8.50;99.90;;;;;;5021880;28;20113;-70
2021/12/01 12:49:36;;;;;;;;;;;8.50;99.90;;;;;;5022413;28;19953;-71
2021/12/01 12:52:17;;;;;;;;;;;8.50;99.90;;;;;;5015952;28;19928;-72
2021/12/01 12:54:45;;;;;;;;;;;8.50;99.90;;;;;;5020225;28;19922;-72
2021/12/01 12:57:13;;;;;;;;;;;8.50;99.90;;;;;;5022719;28;19929;-72
2021/12/01 12:59:40;;;;;;;;;;;8.50;99.90;;;;;;5022575;28;19984;-72
2021/12/01 13:02:26;;;;;;;;;;;8.40;99.90;;;;;;5026256;28;19929;-71
2021/12/01 13:04:57;;;;;;;;;;;8.50;99.90;;;;;;5025398;28;20113;-72
2021/12/01 13:07:41;;;;;;;;;;;8.50;99.90;;;;;;5026322;28;19929;-72
2021/12/01 13:10:20;;;;;;;;;;;8.50;99.90;;;;;;5026109;28;19921;-72
2021/12/01 13:12:48;;;;;;;;;;;8.50;99.90;;;;;;5025089;28;19971;-72
2021/12/01 13:15:18;;;;;;;;;;;8.40;99.90;;;;;;5025153;28;19928;-71
2021/12/01 13:17:46;;;;;;;;;;;8.40;99.90;;;;;;5025365;28;19929;-72
2021/12/01 13:20:13;;;;;;;;;;;8.30;99.90;;;;;;5024983;28;19984;-72
2021/12/01 13:22:39;;;;;;;;;;;8.30;99.90;;;;;;5026364;28;19922;-72
2021/12/01 13:25:08;;;;;;;;;;;8.30;99.90;;;;;;5025183;28;19952;-74
2021/12/01 13:27:44;;;;;;;;;;;8.20;99.90;;;;;;5025736;28;19996;-72
2021/12/01 13:30:11;;;;;;;;;;;8.20;99.90;;;;;;5025980;28;20200;-72
2021/12/01 13:32:38;;;;;;;;;;;8.30;99.90;;;;;;5022523;28;19922;-72
2021/12/01 13:35:05;;;;;;;;;;;8.30;99.90;;;;;;5024842;28;20206;-72
2021/12/01 13:37:31;;;;;;;;;;;8.20;99.90;;;;;;5025335;28;20113;-71
2021/12/01 13:39:58;;;;;;;;;;;8.30;99.90;;;;;;5025666;28;19921;-72
2021/12/01 13:42:32;;;;;;;;;;;8.20;99.90;;;;;;5025430;28;20228;-72
2021/12/01 13:45:00;;;;;;;;;;;8.30;99.90;;;;;;5009723;28;19922;-72
2021/12/01 13:47:29;;;;;;;;;;;8.30;99.90;;;;;;5025979;28;20109;-73
2021/12/01 13:49:57;;;;;;;;;;;8.20;99.90;;;;;;5025134;28;19921;-73
2021/12/01 13:52:27;;;;;;;;;;;8.20;99.90;;;;;;5025557;28;20241;-73
2021/12/01 13:54:54;;;;;;;;;;;8.30;99.90;;;;;;5024094;28;19922;-71
2021/12/01 13:57:21;;;;;;;;;;;8.30;99.90;;;;;;5024800;28;19928;-72
2021/12/01 13:59:49;;;;;;;;;;;8.30;99.90;;;;;;5025235;28;19937;-72
2021/12/01 14:02:23;;;;;;;;;;;8.30;99.90;;;;;;5025198;28;19929;-72
2021/12/01 14:04:51;;;;;;;;;;;8.30;99.90;;;;;;5024507;28;19929;-70
2021/12/01 14:07:18;;;;;;;;;;;8.30;99.90;;;;;;5024589;28;19925;-73
2021/12/01 14:10:05;;;;;;;;;;;8.20;99.90;;;;;;5024016;28;19921;-71
2021/12/01 14:12:36;;;;;;;;;;;8.20;99.90;;;;;;5022387;28;20125;-72
2021/12/01 14:15:02;;;;;;;;;;;8.20;99.90;;;;;;5023219;28;19928;-72
2021/12/01 14:17:30;;;;;;;;;;;8.10;99.90;;;;;;5024706;28;19922;-73
2021/12/01 14:19:58;;;;;;;;;;;8.10;99.90;;;;;;5024968;28;19928;-72
2021/12/01 14:22:25;;;;;;;;;;;8.10;99.90;;;;;;5023294;28;19936;-72
2021/12/01 14:24:53;;;;;;;;;;;8.10;99.90;;;;;;5024598;28;19921;-72
2021/12/01 14:27:24;;;;;;;;;;;8.10;99.90;;;;;;5023208;28;20235;-71
2021/12/01 14:29:51;;;;;;;;;;;8.10;99.90;;;;;;5025097;28;19922;-72
2021/12/01 14:32:17;;;;;;;;;;;8.10;99.90;;;;;;5025042;28;19935;-71
2021/12/01 14:34:46;;;;;;;;;;;8.10;99.90;;;;;;5024631;28;20145;-72
2021/12/01 14:37:14;;;;;;;;;;;8.10;99.90;;;;;;5022403;28;19922;-71
2021/12/01 14:39:41;;;;;;;;;;;8.10;99.90;;;;;;5025159;28;19922;-72
2021/12/01 14:42:09;;;;;;;;;;;8.10;99.90;;;;;;5024590;28;19921;-72